Skip to main content Skip to accessibility
This website is not compatible with your web browser. You should install a newer browser. If you live in Jersey and need help upgrading call the States of Jersey web team on 440099.

L'înformâtion et les sèrvices publyis pouor I'Île dé Jèrri

  • Choose the service you want to log in to:


    Update your notification preferences


    Access government and parish services


    Clear goods through customs or claim relief

  • Talentlink

    View or update your States of Jersey job application

Local METARs

METAR EGJJ 181250Z 12013KT 8000 SCT008 BKN009 05/03 Q1002

METAR EGJB 181250Z 11014KT 8000 -RASN BKN009 03/02 Q1002

METAR EGJA 181250Z 10013KT 3000 -RA BKN005 02/// Q1003 RERA

METAR LFRD 181300Z AUTO 21005KT 140V250 9999 FEW033 BKN045 08/M01 Q1002 TEMPO SHRA BKN015TCU

METAR LFRC 181300Z AUTO 10015KT 7000 OVC012 02/M01 Q1003 TEMPO 4000 RADZ BKN007 BECMG 09015G25KT




​Times are in Greenwich Mean Time (GMT) and not British Summer Time (BST). They will be one hour different during BST.

Back to top
rating button